Have a Safe July 4th! 

Flight Track Log - Related Links

Times and Time Zones

All times are in EDT time to prevent confusion due to time zone crossing. See the CNS5150 flight status page for this flight to view local times or setup timezone preferences in your user account.

Time Position Orientation Groundspeed Altitude Reporting Facility
EDT Latitude Longitude Course Direction KTS MPH feet Rate Location/Type
Thu 05:53:20 PM 32.1950 -80.7861 262° West 176 203 7,600  Level Jacksonville Center
Thu 05:54:20 PM 32.2061 -80.8375 284° West 157 181 9,000 1,400 Climbing Jacksonville Center
Thu 05:55:20 PM 32.2278 -80.8836 299° West 175 201 10,400 1,450 Climbing Jacksonville Center
Thu 05:56:00 PM 32.3692 -81.0563 295° West  Level FlightAware Approximate
Thu 05:56:20 PM 32.2539 -80.9469 296° West 186 214 11,900  Level Jacksonville Center
Thu 05:57:00 PM 32.3945 -81.1196 295° West  Level FlightAware Approximate
Thu 05:57:20 PM 32.2778 -81.0031 297° West 196 226 13,200  Level Jacksonville Center
Thu 05:58:20 PM 32.3014 -81.0542 299° West 196 226 14,400 1,250 Climbing Jacksonville Center
Thu 05:59:20 PM 32.3294 -81.1200 297° West 196 226 15,700 1,098 Climbing Jacksonville Center
Thu 06:00:53 PM 32.3694 -81.2108 298° West 197 227 17,200 863 Climbing Atlanta Center
Thu 06:01:53 PM 32.3939 -81.2714 296° West 203 234 17,900 400 Climbing Atlanta Center
Thu 06:02:53 PM 32.4225 -81.3369 297° West 214 246 18,000 50 Climbing Atlanta Center
Thu 06:03:53 PM 32.4533 -81.4125 296° West 233 268 18,000  Level Atlanta Center
Thu 06:04:53 PM 32.4861 -81.4853 298° West 245 282 18,000  Level Atlanta Center
Thu 06:05:53 PM 32.5169 -81.5583 297° West 245 282 18,000  Level Atlanta Center
Thu 06:06:53 PM 32.5475 -81.6314 296° West 250 288 18,000  Level Atlanta Center
Thu 06:07:53 PM 32.5781 -81.7044 296° West 250 288 18,000  Level Atlanta Center
Thu 06:08:53 PM 32.6086 -81.7775 296° West 250 288 18,000  Level Atlanta Center
Thu 06:09:53 PM 32.6372 -81.8483 296° West 250 288 18,000  Level Atlanta Center
Thu 06:10:53 PM 32.6675 -81.9192 297° West 250 288 18,000  Level Atlanta Center
Thu 06:11:53 PM 32.7003 -81.9950 297° West 250 288 18,000  Level Atlanta Center
Thu 06:12:53 PM 32.7286 -82.0683 295° West 250 288 18,000  Level Atlanta Center
Thu 06:13:53 PM 32.7608 -82.1394 298° West 250 288 18,000  Level Atlanta Center
Thu 06:14:53 PM 32.7933 -82.2153 297° West 255 293 18,000  Level Atlanta Center
Thu 06:15:53 PM 32.8236 -82.2889 296° West 250 288 18,000 -450 Level Atlanta Center
Thu 06:16:53 PM 32.8561 -82.3647 297° West 255 293 17,100 -900 Descending Atlanta Center
Thu 06:17:53 PM 32.8883 -82.4458 295° West 261 300 16,200 -900 Descending Atlanta Center
Thu 06:18:53 PM 32.9231 -82.5317 296° West 267 307 15,300 -950 Descending Atlanta Center
Thu 06:19:53 PM 32.9572 -82.6103 297° West 272 313 14,300 -1,050 Descending Atlanta Center
Thu 06:20:53 PM 32.9894 -82.6917 295° West 272 313 13,200 -1,050 Descending Atlanta Center
Thu 06:21:53 PM 33.0239 -82.7728 297° West 272 313 12,200 -900 Descending Atlanta Center
Thu 06:22:53 PM 33.0581 -82.8542 297° West 272 313 11,400 -550 Descending Atlanta Center
Thu 06:23:53 PM 33.0942 -82.9453 295° West 272 313 11,100 -550 Descending Atlanta Center
Thu 06:24:53 PM 33.1200 -83.0094 296° West 267 307 10,300 -500 Descending Atlanta Center
Thu 06:25:53 PM 33.1433 -83.0664 296° West 231 266 10,100 -100 Descending Atlanta Center
Thu 06:26:53 PM 33.1711 -83.1356 296° West 226 260 10,100  Level Atlanta Center
Thu 06:27:53 PM 33.2008 -83.2072 296° West 226 260 10,100 -50 Level Atlanta Center
Thu 06:28:53 PM 33.2347 -83.2839 298° West 248 285 10,000  Descending Atlanta Center
Thu 06:29:53 PM 33.2683 -83.3506 301° West 246 283 10,100 -375 Climbing Atlanta Center
Thu 06:32:05 PM 33.3167 -83.5000 291° West 190 219 8,800 -656 Descending Atlanta TRACON
Thu 06:33:05 PM 33.3500 -83.5667 301° West 185 213 8,000 -421 Descending Atlanta TRACON
Thu 06:33:59 PM 33.3667 -83.6167 292° West 218 251 8,000 -53 Level Atlanta TRACON
Thu 06:34:59 PM 33.4167 -83.6833 312° West 247 284 7,900 -524 Descending Atlanta TRACON
Thu 06:36:05 PM 33.4833 -83.7167 337° Northwest 271 312 6,900 -905 Descending Atlanta TRACON
Thu 06:37:05 PM 33.5500 -83.7500 337° Northwest 270 311 6,000 -450 Descending Atlanta TRACON
Thu 06:38:05 PM 33.6167 -83.7833 337° Northwest 252 290 6,000  Level Atlanta TRACON
Thu 06:39:05 PM 33.6833 -83.8333 328° Northwest 252 290 6,000  Level Atlanta TRACON
Thu 06:40:00 PM 33.7333 -83.8500 345° North 248 285 6,000 -313 Level Atlanta TRACON
Thu 06:41:00 PM 33.8000 -83.8833 337° Northwest 247 284 5,400 -800 Descending Atlanta TRACON
Thu 06:42:00 PM 33.8667 -83.9167 337° Northwest 244 281 4,400 -706 Descending Atlanta TRACON
Thu 06:42:59 PM 33.9167 -83.9500 331° Northwest 238 274 4,000 -211 Descending Atlanta TRACON
Thu 06:43:54 PM 33.9667 -83.9833 331° Northwest 225 259 4,000  Level Atlanta TRACON
Thu 06:44:54 PM 34.0333 -84.0333 328° Northwest 238 274 4,000  Level Atlanta TRACON
Thu 06:45:54 PM 34.0500 -84.0833 292° West 232 267 4,000 -100 Level Atlanta TRACON
Thu 06:46:54 PM 34.0500 -84.1500 270° West 208 239 3,800 -432 Descending Atlanta TRACON
Thu 06:47:59 PM 34.0000 -84.2000 220° Southwest 207 238 3,100 -619 Descending Atlanta TRACON
Thu 06:49:00 PM 33.9500 -84.2500 220° Southwest 195 224 2,500 -545 Descending Atlanta TRACON
Thu 06:50:00 PM 33.9167 -84.2833 220° Southwest 127 146 2,000 -500 Descending Atlanta TRACON
Thu 06:51:00 PM 33.8756 -84.3020 239° Southwest  Level Estimated
Thu 06:58:00 PM 33.8756 -84.3020 239° Southwest  Level Estimated
Thu 06:59:00 PM 33.8756 -84.3020 239° Southwest  Level Estimated

Login

Don't have an account? Register now (free) for customized features, flight alerts, and more!